createdAt,value
2022-11-12T00:01:10.720Z,10.65
2022-11-12T00:03:38.674Z,16.17
2022-11-12T00:06:06.337Z,11.23
2022-11-12T00:08:33.974Z,12.93
2022-11-12T00:11:01.632Z,11.27
2022-11-12T00:13:30.653Z,10.82
2022-11-12T00:15:58.256Z,10.95
2022-11-12T00:18:26.202Z,13.00
2022-11-12T00:20:54.027Z,11.13
2022-11-12T00:23:21.666Z,13.75
2022-11-12T00:25:49.305Z,12.02
2022-11-12T00:28:16.892Z,14.18
2022-11-12T00:30:45.839Z,15.43
2022-11-12T00:33:13.476Z,13.73
2022-11-12T00:35:41.109Z,16.80
2022-11-12T00:38:08.744Z,18.25
2022-11-12T00:40:36.402Z,14.02
2022-11-12T00:43:04.042Z,14.18
2022-11-12T00:45:31.675Z,11.10
2022-11-12T00:48:00.684Z,14.38
2022-11-12T00:50:28.323Z,13.55
2022-11-12T00:52:55.964Z,15.60
2022-11-12T00:55:23.626Z,14.50
2022-11-12T00:57:51.244Z,14.73
2022-11-12T01:00:20.171Z,14.13
2022-11-12T01:02:51.139Z,15.38
2022-11-12T01:05:21.050Z,14.80
2022-11-12T01:07:54.666Z,14.32
2022-11-12T01:10:23.419Z,14.15
2022-11-12T01:12:51.037Z,13.07
2022-11-12T01:15:18.798Z,12.82
2022-11-12T01:17:46.454Z,12.85
2022-11-12T01:20:14.058Z,12.45
2022-11-12T01:22:43.051Z,15.60
2022-11-12T01:25:10.747Z,15.07
2022-11-12T01:27:38.391Z,18.17
2022-11-12T01:30:07.248Z,16.98
2022-11-12T01:32:38.103Z,14.48
2022-11-12T01:35:06.656Z,16.98
2022-11-12T01:37:34.290Z,15.60
2022-11-12T01:40:03.366Z,14.27
2022-11-12T01:42:32.981Z,16.15
2022-11-12T01:45:00.617Z,13.73
2022-11-12T01:47:30.802Z,14.70
2022-11-12T01:50:02.255Z,14.02
2022-11-12T01:52:32.757Z,15.07
2022-11-12T01:55:06.472Z,14.23
2022-11-12T01:57:39.039Z,16.08
2022-11-12T02:00:10.472Z,12.18
2022-11-12T02:02:38.469Z,13.15
2022-11-12T02:05:10.259Z,13.13
2022-11-12T02:07:40.659Z,14.35
2022-11-12T02:10:11.045Z,11.32
2022-11-12T02:13:04.912Z,14.38
2022-11-12T02:15:32.871Z,10.85
2022-11-12T02:18:00.499Z,14.52
2022-11-12T02:20:28.111Z,14.23
2022-11-12T02:22:57.096Z,14.82
2022-11-12T02:25:25.795Z,17.38
2022-11-12T02:27:55.388Z,11.32
2022-11-12T02:30:36.608Z,12.82
2022-11-12T02:33:04.415Z,14.43
2022-11-12T02:35:32.395Z,14.27
2022-11-12T02:38:05.076Z,14.82
2022-11-12T02:40:32.746Z,13.10
2022-11-12T02:43:00.366Z,14.63
2022-11-12T02:45:28.541Z,14.50
2022-11-12T02:47:56.178Z,11.77
2022-11-12T02:50:23.781Z,13.50
2022-11-12T02:52:51.494Z,13.02
2022-11-12T02:55:20.535Z,15.43
2022-11-12T02:57:48.165Z,13.27
2022-11-12T03:00:16.178Z,12.65
2022-11-12T03:02:58.679Z,13.13
2022-11-12T03:05:26.935Z,13.35
2022-11-12T03:08:01.311Z,11.82
2022-11-12T03:10:31.451Z,12.55
2022-11-12T03:13:01.112Z,13.63
2022-11-12T03:15:29.982Z,11.50
2022-11-12T03:17:58.643Z,14.15
2022-11-12T03:20:26.764Z,11.90
2022-11-12T03:23:00.100Z,13.13
2022-11-12T03:25:30.703Z,15.68
2022-11-12T03:27:59.522Z,12.40
2022-11-12T03:30:28.213Z,14.52
2022-11-12T03:32:55.909Z,13.10
2022-11-12T03:35:23.869Z,12.85
2022-11-12T03:37:53.799Z,13.02
2022-11-12T03:40:21.574Z,14.65
2022-11-12T03:42:52.158Z,14.25
2022-11-12T03:45:21.527Z,13.48
2022-11-12T03:47:51.667Z,15.25
2022-11-12T03:50:21.275Z,18.17
2022-11-12T03:52:50.539Z,15.02
2022-11-12T03:55:20.275Z,17.63
2022-11-12T03:57:50.984Z,15.60
2022-11-12T04:00:18.934Z,19.75
2022-11-12T04:02:46.866Z,18.48
2022-11-12T04:05:32.482Z,16.80
2022-11-12T04:08:17.770Z,18.30
2022-11-12T04:10:45.734Z,19.45
2022-11-12T04:13:29.728Z,16.95
2022-11-12T04:16:16.884Z,18.98
2022-11-12T04:19:04.146Z,16.00
2022-11-12T04:21:52.130Z,22.92
2022-11-12T04:24:39.049Z,20.92
2022-11-12T04:27:08.028Z,15.32
2022-11-12T04:29:54.366Z,20.30
2022-11-12T04:32:22.687Z,17.70
2022-11-12T04:34:50.363Z,15.43
2022-11-12T04:37:23.235Z,15.88
2022-11-12T04:39:51.460Z,14.18
2022-11-12T04:42:37.027Z,14.90
2022-11-12T04:45:08.650Z,19.25
2022-11-12T04:47:38.175Z,13.63
2022-11-12T04:50:08.147Z,15.90
2022-11-12T04:52:36.051Z,17.17
2022-11-12T04:55:03.701Z,15.68
2022-11-12T04:57:31.349Z,20.75
2022-11-12T04:59:58.987Z,17.40
2022-11-12T05:02:27.991Z,14.70
2022-11-12T05:04:57.675Z,14.73
2022-11-12T05:07:25.311Z,16.00
2022-11-12T05:09:52.932Z,13.75
2022-11-12T05:12:20.570Z,14.63
2022-11-12T05:14:48.208Z,18.10
2022-11-12T05:17:15.868Z,15.18
2022-11-12T05:19:44.882Z,16.77
2022-11-12T05:22:33.303Z,15.57
2022-11-12T05:25:00.685Z,17.05
2022-11-12T05:27:28.313Z,15.25
2022-11-12T05:29:55.928Z,17.05
2022-11-12T05:32:23.676Z,14.82
2022-11-12T05:34:52.664Z,15.77
2022-11-12T05:37:20.788Z,17.00
2022-11-12T05:39:48.452Z,15.13
2022-11-12T05:42:16.071Z,19.15
2022-11-12T05:44:43.709Z,14.70
2022-11-12T05:47:11.359Z,15.80
2022-11-12T05:49:38.979Z,20.65
2022-11-12T05:52:07.949Z,16.13
2022-11-12T05:54:35.593Z,19.75
2022-11-12T05:57:04.045Z,21.08
2022-11-12T05:59:31.725Z,15.77
2022-11-12T06:01:59.531Z,19.40
2022-11-12T06:04:27.820Z,18.20
2022-11-12T06:06:55.505Z,20.45
2022-11-12T06:09:24.498Z,19.45
2022-11-12T06:11:52.106Z,20.67
2022-11-12T06:14:19.724Z,25.35
2022-11-12T06:16:47.345Z,24.05
2022-11-12T06:19:14.982Z,22.83
2022-11-12T06:21:42.582Z,23.70
2022-11-12T06:24:10.650Z,25.80
2022-11-12T06:26:39.667Z,18.48
2022-11-12T06:29:07.290Z,17.88
2022-11-12T06:31:34.876Z,19.63
2022-11-12T06:34:03.119Z,19.23
2022-11-12T06:36:30.828Z,19.50
2022-11-12T06:38:58.467Z,16.58
2022-11-12T06:41:26.102Z,19.45
2022-11-12T06:43:55.052Z,17.58
2022-11-12T06:46:22.668Z,16.00
2022-11-12T06:48:50.307Z,16.33
2022-11-12T06:51:21.513Z,17.42
2022-11-12T06:53:51.713Z,18.27
2022-11-12T06:56:19.538Z,15.43
2022-11-12T06:58:47.141Z,17.95
2022-11-12T07:01:17.910Z,17.35
2022-11-12T07:03:46.324Z,16.83
2022-11-12T07:06:15.530Z,17.95
2022-11-12T07:08:43.408Z,18.42
2022-11-12T07:11:11.347Z,19.30
2022-11-12T07:13:39.141Z,15.15
2022-11-12T07:16:08.949Z,15.93
2022-11-12T07:18:38.840Z,16.80
2022-11-12T07:21:08.980Z,15.18
2022-11-12T07:23:37.797Z,15.05
2022-11-12T07:26:07.343Z,14.32
2022-11-12T07:28:36.685Z,12.77
2022-11-12T07:31:06.838Z,11.70
2022-11-12T07:33:35.275Z,12.50
2022-11-12T07:36:06.502Z,12.00
2022-11-12T07:38:35.526Z,13.88
2022-11-12T07:41:05.507Z,12.38
2022-11-12T07:43:34.521Z,11.48
2022-11-12T07:46:09.016Z,11.30
2022-11-12T07:48:38.338Z,12.10
2022-11-12T07:51:09.127Z,13.18
2022-11-12T07:53:36.758Z,12.90
2022-11-12T07:56:05.473Z,13.60
2022-11-12T07:58:35.210Z,11.95
2022-11-12T08:01:09.499Z,12.85
2022-11-12T08:03:37.331Z,12.85
2022-11-12T08:06:07.266Z,11.57
2022-11-12T08:08:35.016Z,12.32
2022-11-12T08:11:02.624Z,12.50
2022-11-12T08:13:30.231Z,12.15
2022-11-12T08:15:58.894Z,12.20
2022-11-12T08:18:26.801Z,12.48
2022-11-12T08:21:00.647Z,11.02
2022-11-12T08:23:31.923Z,12.23
2022-11-12T08:26:00.113Z,12.10
2022-11-12T08:28:29.895Z,11.40
2022-11-12T08:30:59.485Z,12.60
2022-11-12T08:33:27.152Z,10.20
2022-11-12T08:35:54.777Z,12.88
2022-11-12T08:38:22.413Z,10.57
2022-11-12T08:40:51.568Z,13.20
2022-11-12T08:43:19.232Z,9.30
2022-11-12T08:45:48.537Z,10.18
2022-11-12T08:48:16.351Z,10.63
2022-11-12T08:50:43.974Z,11.60
2022-11-12T08:53:13.431Z,9.02
2022-11-12T08:55:41.369Z,8.90
2022-11-12T08:58:10.956Z,8.32
2022-11-12T09:00:41.388Z,8.57
2022-11-12T09:03:13.400Z,11.80
2022-11-12T09:05:41.085Z,9.70
2022-11-12T09:08:10.467Z,10.50
2022-11-12T09:10:39.520Z,10.30
2022-11-12T09:13:07.779Z,9.00
2022-11-12T09:15:38.352Z,8.52
2022-11-12T09:18:08.088Z,8.73
2022-11-12T09:20:36.008Z,10.68
2022-11-12T09:23:07.950Z,8.40
2022-11-12T09:25:36.561Z,11.55
2022-11-12T09:28:09.277Z,9.63
2022-11-12T09:30:39.227Z,10.38
2022-11-12T09:33:06.924Z,8.82
2022-11-12T09:35:35.190Z,11.02
2022-11-12T09:38:02.861Z,8.40
2022-11-12T09:40:43.517Z,8.45
2022-11-12T09:43:18.280Z,9.10
2022-11-12T09:46:06.456Z,8.80
2022-11-12T09:48:41.026Z,8.00
2022-11-12T09:51:16.974Z,7.65
2022-11-12T09:53:49.229Z,6.90
2022-11-12T09:56:20.856Z,7.35
2022-11-12T09:58:49.000Z,7.50
2022-11-12T10:01:23.430Z,7.43
2022-11-12T10:04:00.320Z,7.22
2022-11-12T10:06:35.475Z,7.20
2022-11-12T10:09:10.210Z,7.50
2022-11-12T10:12:06.982Z,7.40
2022-11-12T10:14:51.426Z,7.35
2022-11-12T10:17:33.334Z,7.70
2022-11-12T10:20:15.305Z,7.50
2022-11-12T10:22:59.584Z,7.22
2022-11-12T10:25:28.436Z,7.80
2022-11-12T10:27:57.229Z,8.77
2022-11-12T10:30:26.654Z,7.07
2022-11-12T10:32:55.642Z,7.38
2022-11-12T10:35:24.982Z,7.50
2022-11-12T10:37:58.666Z,6.55
2022-11-12T10:40:33.052Z,7.93
2022-11-12T10:43:04.036Z,7.90
2022-11-12T10:45:32.363Z,7.60
2022-11-12T10:48:01.387Z,8.30
2022-11-12T10:50:34.620Z,9.52
2022-11-12T10:53:03.746Z,8.30
2022-11-12T10:55:33.302Z,8.52
2022-11-12T10:58:14.726Z,8.55
2022-11-12T11:00:55.416Z,7.72
2022-11-12T11:03:26.390Z,7.63
2022-11-12T11:05:57.223Z,8.13
2022-11-12T11:08:37.708Z,8.43
2022-11-12T11:11:20.100Z,7.40
2022-11-12T11:13:52.863Z,7.25
2022-11-12T11:16:25.209Z,8.05
2022-11-12T11:18:57.389Z,7.88
2022-11-12T11:21:45.261Z,7.78
2022-11-12T11:24:22.645Z,9.98
2022-11-12T11:27:03.258Z,9.45
2022-11-12T11:29:45.562Z,8.98
2022-11-12T11:32:26.540Z,8.52
2022-11-12T11:35:08.203Z,9.85
2022-11-12T11:37:43.174Z,8.68
2022-11-12T11:40:19.458Z,9.02
2022-11-12T11:43:04.778Z,8.02
2022-11-12T11:45:46.709Z,10.07
2022-11-12T11:48:24.124Z,9.07
2022-11-12T11:51:00.639Z,12.38
2022-11-12T11:53:34.115Z,9.35
2022-11-12T11:56:05.973Z,9.98
2022-11-12T11:58:59.324Z,10.13
2022-11-12T12:01:36.165Z,13.25
2022-11-12T12:04:28.256Z,11.35
2022-11-12T12:07:10.978Z,10.98
2022-11-12T12:09:48.777Z,11.10
2022-11-12T12:12:26.933Z,13.38
2022-11-12T12:15:07.935Z,22.58
2022-11-12T12:17:50.768Z,13.40
2022-11-12T12:20:23.042Z,16.70
2022-11-12T12:22:57.500Z,16.73
2022-11-12T12:25:29.315Z,16.35
2022-11-12T12:28:03.299Z,16.67
2022-11-12T12:30:35.690Z,16.83
2022-11-12T12:33:19.826Z,17.30
2022-11-12T12:35:55.084Z,18.92
2022-11-12T12:38:28.473Z,17.05
2022-11-12T12:41:03.899Z,20.23
2022-11-12T12:43:36.919Z,15.57
2022-11-12T12:46:05.748Z,17.58
2022-11-12T12:48:37.261Z,20.38
2022-11-12T12:51:05.178Z,16.85
2022-11-12T12:53:36.207Z,16.95
2022-11-12T12:56:05.734Z,16.73
2022-11-12T12:58:34.810Z,18.88
2022-11-12T13:01:04.971Z,16.10
2022-11-12T13:03:54.568Z,18.48
2022-11-12T13:06:28.751Z,17.67
2022-11-12T13:09:02.790Z,17.55
2022-11-12T13:12:17.930Z,16.08
2022-11-12T13:14:59.320Z,18.25
2022-11-12T13:17:50.665Z,17.25
2022-11-12T13:20:41.645Z,17.08
2022-11-12T13:23:12.185Z,19.58
2022-11-12T13:25:41.232Z,15.93
2022-11-12T13:28:11.395Z,15.60
2022-11-12T13:31:00.255Z,18.15
2022-11-12T13:33:36.619Z,17.05
2022-11-12T13:36:27.243Z,19.88
2022-11-12T13:39:11.286Z,17.13
2022-11-12T13:41:58.030Z,18.55
2022-11-12T13:44:25.883Z,15.40
2022-11-12T13:46:55.900Z,14.30
2022-11-12T13:49:23.887Z,17.73
2022-11-12T13:51:53.235Z,16.20
2022-11-12T13:54:29.736Z,17.63
2022-11-12T13:57:14.639Z,17.20
2022-11-12T13:59:44.092Z,15.50
2022-11-12T14:02:22.261Z,15.23
2022-11-12T14:04:50.660Z,16.75
2022-11-12T14:07:36.220Z,15.98
2022-11-12T14:10:12.705Z,16.33
2022-11-12T14:13:02.141Z,15.25
2022-11-12T14:15:43.545Z,16.83
2022-11-12T14:18:18.380Z,16.63
2022-11-12T14:20:46.125Z,15.77
2022-11-12T14:23:21.532Z,16.92
2022-11-12T14:25:53.475Z,24.00
2022-11-12T14:28:31.333Z,17.77
2022-11-12T14:31:01.050Z,18.73
2022-11-12T14:33:30.442Z,19.10
2022-11-12T14:36:03.035Z,20.02
2022-11-12T14:38:36.963Z,19.40
2022-11-12T14:41:09.031Z,19.70
2022-11-12T14:43:39.887Z,21.70
2022-11-12T14:46:08.817Z,18.65
2022-11-12T14:48:47.519Z,18.15
2022-11-12T14:51:16.028Z,18.70
2022-11-12T14:53:48.515Z,17.13
2022-11-12T14:56:25.713Z,17.67
2022-11-12T14:58:57.013Z,17.88
2022-11-12T15:04:21.628Z,16.95
2022-11-12T15:06:53.715Z,16.70
2022-11-12T15:09:34.008Z,17.98
2022-11-12T15:12:02.038Z,17.48
2022-11-12T15:14:31.359Z,17.92
2022-11-12T15:17:00.598Z,18.20
2022-11-12T15:19:29.685Z,17.85
2022-11-12T15:22:01.096Z,21.15
2022-11-12T15:24:32.378Z,17.85
2022-11-12T15:27:02.422Z,17.83
2022-11-12T15:29:34.132Z,18.25
2022-11-12T15:32:23.100Z,21.38
2022-11-12T15:34:52.190Z,18.98
2022-11-12T15:37:26.820Z,18.35
2022-11-12T15:39:58.355Z,23.17
2022-11-12T15:42:29.330Z,23.88
2022-11-12T15:45:01.634Z,23.15
2022-11-12T15:47:29.665Z,22.98
2022-11-12T15:49:59.631Z,25.95
2022-11-12T15:52:27.944Z,29.55
2022-11-12T15:54:55.850Z,27.73
2022-11-12T15:57:26.861Z,28.98
2022-11-12T16:00:07.583Z,29.27
2022-11-12T16:02:36.115Z,27.75
2022-11-12T16:05:03.964Z,33.13
2022-11-12T16:07:31.652Z,28.55
2022-11-12T16:09:59.330Z,42.20
2022-11-12T16:12:27.906Z,29.27
2022-11-12T16:14:55.680Z,24.33
2022-11-12T16:17:24.747Z,28.35
2022-11-12T16:19:52.378Z,23.95
2022-11-12T16:22:20.035Z,27.85
2022-11-12T16:24:47.686Z,29.08
2022-11-12T16:27:16.473Z,26.08
2022-11-12T16:29:44.131Z,27.38
2022-11-12T16:32:15.283Z,25.30
2022-11-12T16:34:44.275Z,27.48
2022-11-12T16:37:13.365Z,27.25
2022-11-12T16:39:41.301Z,23.90
2022-11-12T16:42:10.618Z,25.35
2022-11-12T16:44:38.361Z,27.63
2022-11-12T16:47:09.401Z,26.55
2022-11-12T16:49:38.914Z,23.63
2022-11-12T16:52:10.225Z,25.17
2022-11-12T16:54:37.936Z,20.30
2022-11-12T16:57:05.716Z,28.15
2022-11-12T16:59:33.408Z,27.27
2022-11-12T17:02:01.052Z,26.13
2022-11-12T17:04:28.748Z,26.17
2022-11-12T17:06:56.446Z,26.48
2022-11-12T17:09:25.717Z,34.08
2022-11-12T17:11:53.356Z,32.60
2022-11-12T17:14:24.295Z,28.02
2022-11-12T17:16:55.715Z,30.55
2022-11-12T17:19:23.434Z,26.90
2022-11-12T17:21:51.211Z,30.75
2022-11-12T17:24:18.988Z,23.05
2022-11-12T17:26:48.041Z,26.30
2022-11-12T17:29:15.688Z,21.73
2022-11-12T17:31:43.380Z,22.88
2022-11-12T17:34:11.078Z,24.20
2022-11-12T17:36:43.380Z,23.17
2022-11-12T17:39:12.793Z,28.52
2022-11-12T17:41:40.501Z,28.52
2022-11-12T17:44:09.552Z,36.55
2022-11-12T17:46:37.432Z,32.58
2022-11-12T17:49:05.056Z,24.80
2022-11-12T17:51:32.769Z,26.48
2022-11-12T17:54:00.451Z,45.60
2022-11-12T17:56:31.793Z,37.05
2022-11-12T17:59:02.573Z,27.05
2022-11-12T18:01:33.533Z,26.83
2022-11-12T18:04:01.954Z,94.18
2022-11-12T18:06:31.985Z,25.58
2022-11-12T18:09:01.885Z,25.60
2022-11-12T18:11:32.816Z,30.40
2022-11-12T18:14:06.569Z,28.17
2022-11-12T18:16:36.663Z,26.23
2022-11-12T18:19:05.267Z,35.63
2022-11-12T18:21:35.137Z,27.45
2022-11-12T18:24:02.766Z,42.17
2022-11-12T18:26:30.416Z,27.90
2022-11-12T18:28:59.220Z,35.20
2022-11-12T18:31:28.353Z,32.65
2022-11-12T18:33:59.900Z,31.05
2022-11-12T18:36:28.457Z,26.58
2022-11-12T18:38:56.797Z,24.40
2022-11-12T18:41:26.974Z,24.50
2022-11-12T18:43:55.684Z,23.17
2022-11-12T18:46:24.107Z,31.40
2022-11-12T18:48:52.125Z,27.42
2022-11-12T18:51:21.269Z,44.45
2022-11-12T18:53:49.018Z,51.63
2022-11-12T18:56:19.276Z,48.90
2022-11-12T18:58:47.450Z,29.52
2022-11-12T19:01:17.229Z,34.88
2022-11-12T19:03:45.284Z,26.33
2022-11-12T19:06:14.204Z,27.88
2022-11-12T19:08:43.270Z,24.95
2022-11-12T19:11:12.812Z,28.30
2022-11-12T19:13:40.746Z,28.70
2022-11-12T19:16:11.726Z,29.13
2022-11-12T19:18:40.813Z,31.15
2022-11-12T19:21:11.106Z,27.05
2022-11-12T19:23:39.434Z,32.17
2022-11-12T19:26:09.719Z,30.23
2022-11-12T19:28:37.427Z,32.88
2022-11-12T19:31:06.047Z,30.40
2022-11-12T19:33:36.948Z,34.53
2022-11-12T19:36:07.241Z,41.13
2022-11-12T19:38:35.007Z,25.73
2022-11-12T19:41:06.143Z,33.42
2022-11-12T19:43:35.309Z,29.23
2022-11-12T19:46:03.373Z,32.05
2022-11-12T19:48:31.605Z,32.63
2022-11-12T19:51:01.662Z,29.20
2022-11-12T19:53:31.544Z,32.42
2022-11-12T19:56:04.363Z,33.67
2022-11-12T19:58:32.597Z,30.20
2022-11-12T20:01:05.794Z,73.38
2022-11-12T20:03:33.464Z,38.30
2022-11-12T20:06:02.659Z,33.90
2022-11-12T20:08:30.768Z,30.75
2022-11-12T20:10:58.813Z,39.78
2022-11-12T20:13:27.064Z,48.45
2022-11-12T20:15:54.945Z,34.10
2022-11-12T20:18:25.654Z,36.00
2022-11-12T20:20:55.982Z,35.70
2022-11-12T20:23:25.028Z,33.85
2022-11-12T20:25:53.964Z,36.17
2022-11-12T20:28:21.760Z,45.38
2022-11-12T20:30:49.846Z,55.25
2022-11-12T20:33:17.635Z,37.17
2022-11-12T20:35:46.665Z,34.03
2022-11-12T20:38:14.396Z,34.40
2022-11-12T20:40:42.160Z,30.05
2022-11-12T20:43:09.988Z,33.30
2022-11-12T20:45:37.722Z,28.25
2022-11-12T20:48:06.751Z,39.33
2022-11-12T20:50:34.534Z,38.72
2022-11-12T20:53:03.700Z,56.33
2022-11-12T20:55:32.639Z,61.05
2022-11-12T20:58:01.414Z,62.63
2022-11-12T21:00:29.062Z,54.17
2022-11-12T21:02:56.910Z,33.70
2022-11-12T21:05:25.011Z,46.53
2022-11-12T21:07:52.933Z,39.72
2022-11-12T21:10:24.998Z,45.60
2022-11-12T21:12:53.171Z,86.00
2022-11-12T21:15:21.420Z,54.60
2022-11-12T21:17:51.638Z,35.90
2022-11-12T21:20:19.376Z,48.00
2022-11-12T21:22:47.213Z,34.97
2022-11-12T21:25:15.209Z,56.72
2022-11-12T21:27:44.388Z,58.72
2022-11-12T21:30:13.634Z,76.88
2022-11-12T21:32:41.408Z,64.50
2022-11-12T21:35:09.498Z,37.80
2022-11-12T21:37:37.155Z,56.40
2022-11-12T21:40:05.745Z,48.40
2022-11-12T21:42:33.478Z,164.65
2022-11-12T21:45:02.523Z,106.63
2022-11-12T21:47:30.284Z,52.35
2022-11-12T21:49:58.045Z,69.00
2022-11-12T21:52:25.763Z,149.57
2022-11-12T21:54:53.452Z,46.80
2022-11-12T21:57:21.196Z,39.08
2022-11-12T21:59:48.921Z,40.30
2022-11-12T22:02:17.989Z,32.58
2022-11-12T22:04:45.720Z,39.70
2022-11-12T22:07:13.408Z,44.20
2022-11-12T22:09:41.063Z,52.35
2022-11-12T22:12:08.831Z,31.98
2022-11-12T22:14:36.470Z,36.90
2022-11-12T22:17:04.218Z,40.97
2022-11-12T22:19:34.357Z,37.50
2022-11-12T22:22:02.112Z,34.03
2022-11-12T22:24:29.790Z,34.45
2022-11-12T22:27:00.058Z,34.10
2022-11-12T22:29:31.933Z,27.25
2022-11-12T22:31:59.628Z,28.95
2022-11-12T22:34:27.286Z,29.40
2022-11-12T22:36:56.277Z,35.22
2022-11-12T22:39:23.915Z,35.45
2022-11-12T22:41:51.578Z,39.50
2022-11-12T22:44:20.003Z,36.15
2022-11-12T22:46:47.928Z,35.05
2022-11-12T22:49:15.609Z,43.92
2022-11-12T22:51:43.317Z,30.50
2022-11-12T22:54:15.627Z,29.67
2022-11-12T22:56:43.323Z,30.58
2022-11-12T23:06:37.889Z,29.30
2022-11-12T23:09:05.959Z,42.80
2022-11-12T23:11:33.926Z,26.40
2022-11-12T23:14:01.598Z,22.73
2022-11-12T23:16:31.389Z,56.20
2022-11-12T23:18:59.725Z,28.23
2022-11-12T23:21:30.643Z,25.83
2022-11-12T23:23:58.736Z,22.30
2022-11-12T23:26:28.612Z,24.63
2022-11-12T23:28:56.227Z,25.30
2022-11-12T23:31:26.383Z,26.15
2022-11-12T23:33:56.089Z,21.40
2022-11-12T23:36:24.978Z,32.05
2022-11-12T23:38:54.587Z,30.13
2022-11-12T23:41:25.687Z,52.60
2022-11-12T23:43:54.177Z,20.45
2022-11-12T23:46:22.290Z,26.00
2022-11-12T23:48:50.280Z,24.70
2022-11-12T23:51:19.656Z,28.10
2022-11-12T23:53:48.817Z,23.58
2022-11-12T23:56:19.652Z,24.27
2022-11-12T23:58:48.075Z,26.77
